Flight Track Log - Related Links

Times and Time Zones

All times are in EDT time to prevent confusion due to time zone crossing. See the SWA862 flight status page for this flight to view local times or setup timezone preferences in your user account.

Time Position Orientation Groundspeed Altitude Reporting Facility
EDT Latitude Longitude Course Direction KTS MPH feet Rate Location/Type
Sat 03:20:36 PM 38.7667 -121.6000 360° North 208 239 3,400  Level Northern Cal TRACON
Sat 03:21:42 PM 38.8500 -121.6167 351° North 256 295 6,400 3,100 Climbing Northern Cal TRACON
Sat 03:22:36 PM 38.9167 -121.6333 349° North 265 305 9,600 2,774 Climbing Northern Cal TRACON
Sat 03:23:15 PM 38.9492 -121.6361 356° North 270 311 10,700 1,740 Climbing Oakland Center
Sat 03:24:16 PM 39.0383 -121.6528 352° North 329 379 12,500 2,508 Climbing Oakland Center
Sat 03:25:00 PM 39.2251 -121.8297 341° North  Level FlightAware Approximate
Sat 03:25:17 PM 39.1517 -121.6758 351° North 343 395 15,800  Level Oakland Center
Sat 03:26:19 PM 39.2519 -121.6950 352° North 361 415 18,200 2,244 Climbing Oakland Center
Sat 03:27:20 PM 39.3525 -121.7156 351° North 365 420 20,400 2,066 Climbing Oakland Center
Sat 03:28:21 PM 39.4583 -121.7375 351° North 382 440 22,400 1,805 Climbing Oakland Center
Sat 03:29:23 PM 39.5561 -121.7553 352° North 386 444 24,100 1,707 Climbing Oakland Center
Sat 03:30:24 PM 39.6872 -121.7819 351° North 398 458 25,900 1,820 Climbing Oakland Center
Sat 03:31:25 PM 39.7983 -121.8039 351° North 405 466 27,800 1,805 Climbing Oakland Center
Sat 03:32:27 PM 39.9072 -121.8269 351° North 400 460 29,600 1,707 Climbing Oakland Center
Sat 03:33:28 PM 40.0147 -121.8492 351° North 394 453 31,300 1,672 Climbing Oakland Center
Sat 03:34:29 PM 40.1186 -121.8706 351° North 385 443 33,000 1,377 Climbing Oakland Center
Sat 03:35:30 PM 40.2208 -121.8908 351° North 377 434 34,100 1,171 Climbing Oakland Center
Sat 03:36:32 PM 40.3239 -121.9117 351° North 377 434 35,400 927 Climbing Oakland Center
Sat 03:37:33 PM 40.4456 -121.9369 351° North 372 428 36,000 295 Climbing Oakland Center
Sat 03:38:34 PM 40.5481 -121.9583 351° North 374 430 36,000  Level Oakland Center
Sat 03:39:36 PM 40.6506 -121.9803 351° North 375 432 36,000  Level Oakland Center
Sat 03:40:37 PM 40.7517 -122.0011 351° North 371 427 36,000  Level Oakland Center
Sat 03:41:38 PM 40.8547 -122.0231 351° North 374 430 36,000  Level Oakland Center
Sat 03:43:20 PM 41.0389 -122.0622 351° North 372 428 36,000  Level Seattle Center
Sat 03:43:41 PM 41.0581 -122.0664 351° North 370 426 36,000  Level Oakland Center
Sat 03:44:21 PM 41.1408 -122.0836 351° North 371 427 36,000  Level Seattle Center
Sat 03:45:22 PM 41.2442 -122.1064 351° North 376 433 36,000  Level Seattle Center
Sat 03:46:23 PM 41.3464 -122.1286 351° North 374 430 36,000  Level Seattle Center
Sat 03:46:45 PM 41.3656 -122.1358 344° North 372 428 36,000  Level Oakland Center
Sat 03:47:24 PM 41.4489 -122.1503 353° North 373 429 36,000  Level Seattle Center
Sat 03:48:25 PM 41.5517 -122.1742 350° North 373 429 36,000  Level Seattle Center
Sat 03:49:26 PM 41.6536 -122.1958 351° North 370 426 36,000  Level Seattle Center
Sat 03:50:27 PM 41.7556 -122.2172 351° North 369 425 36,000  Level Seattle Center
Sat 03:51:28 PM 41.8581 -122.2394 351° North 368 423 36,000  Level Seattle Center
Sat 03:52:29 PM 41.9622 -122.2611 351° North 372 428 36,000  Level Seattle Center
Sat 03:53:29 PM 42.0644 -122.2831 351° North 368 423 36,000  Level Seattle Center
Sat 03:54:30 PM 42.1661 -122.3044 351° North 366 421 36,000  Level Seattle Center
Sat 03:55:31 PM 42.2678 -122.3264 351° North 365 420 36,000  Level Seattle Center
Sat 03:56:32 PM 42.3706 -122.3481 351° North 370 426 36,000  Level Seattle Center
Sat 03:57:33 PM 42.4714 -122.3714 350° North 367 422 36,000  Level Seattle Center
Sat 03:58:34 PM 42.5728 -122.3947 350° North 368 423 36,000  Level Seattle Center
Sat 03:59:35 PM 42.6739 -122.4158 351° North 366 421 36,000  Level Seattle Center
Sat 04:00:36 PM 42.7853 -122.4411 351° North 364 419 36,000  Level Seattle Center
Sat 04:01:36 PM 42.8847 -122.4636 351° North 362 417 36,000  Level Seattle Center
Sat 04:02:37 PM 42.9850 -122.4853 351° North 365 420 36,000  Level Seattle Center
Sat 04:03:38 PM 43.0850 -122.5067 351° North 363 418 36,000  Level Seattle Center
Sat 04:04:39 PM 43.1847 -122.5292 351° North 362 417 36,000  Level Seattle Center
Sat 04:05:40 PM 43.2844 -122.5519 351° North 361 415 36,000  Level Seattle Center
Sat 04:06:41 PM 43.3836 -122.5733 351° North 361 415 36,000  Level Seattle Center
Sat 04:07:41 PM 43.4836 -122.5972 350° North 363 418 36,000  Level Seattle Center
Sat 04:08:42 PM 43.5814 -122.6211 350° North 359 413 36,000  Level Seattle Center
Sat 04:09:43 PM 43.6811 -122.6431 351° North 362 417 36,000  Level Seattle Center
Sat 04:10:44 PM 43.7806 -122.6658 351° North 362 417 36,000 -49 Level Seattle Center
Sat 04:11:45 PM 43.8983 -122.6931 351° North 360 414 35,900 -1,339 Descending Seattle Center
Sat 04:12:45 PM 43.9989 -122.7161 351° North 365 420 33,300 -2,579 Descending Seattle Center
Sat 04:13:46 PM 44.0989 -122.7400 350° North 367 422 30,700 -2,311 Descending Seattle Center
Sat 04:14:47 PM 44.1972 -122.7492 356° North 358 412 28,600 -2,016 Descending Seattle Center
Sat 04:15:48 PM 44.2939 -122.7386 North 352 405 26,600 -2,132 Descending Seattle Center
Sat 04:16:48 PM 44.3969 -122.7289 North 351 404 24,300 -2,182 Descending Seattle Center
Sat 04:17:49 PM 44.4908 -122.7194 North 343 395 22,200 -2,164 Descending Seattle Center
Sat 04:18:50 PM 44.5828 -122.7106 North 334 384 19,900 -2,041 Descending Seattle Center
Sat 04:19:26 PM 44.6386 -122.7058 North 331 381 18,900 -1,574 Descending Seattle Center
Sat 04:19:51 PM 44.6725 -122.7017 North 328 377 18,300 -1,429 Descending Seattle Center
Sat 04:20:08 PM 44.6983 -122.7003 North 317 365 17,900 -1,574 Descending Seattle Center
Sat 04:20:52 PM 44.7597 -122.6936 North 319 367 16,700 -1,846 Descending Seattle Center
Sat 04:21:52 PM 44.8481 -122.6839 North 320 368 14,700 -1,948 Descending Seattle Center
Sat 04:22:09 PM 44.8828 -122.6808 North 318 366 14,200 -1,672 Descending Seattle Center
Sat 04:22:53 PM 44.9333 -122.6753 North 312 359 13,000 -1,770 Descending Seattle Center
Sat 04:23:10 PM 44.9656 -122.6719 North 296 341 12,400 -1,770 Descending Seattle Center
Sat 04:23:54 PM 45.0150 -122.6681 North 301 346 11,200 -1,869 Descending Seattle Center
Sat 04:24:11 PM 45.0461 -122.6639 North 292 336 10,500 -1,475 Descending Seattle Center
Sat 04:24:55 PM 45.0939 -122.6589 North 289 333 9,700 -1,400 Descending Seattle Center
Sat 04:25:11 PM 45.1250 -122.6564 North 277 319 9,100 -1,500 Descending Seattle Center
Sat 04:25:55 PM 45.1675 -122.6517 North 272 313 8,200 -1,429 Descending Seattle Center
Sat 04:26:56 PM 45.2406 -122.6433 North 265 305 6,600 -1,623 Descending Seattle Center
Sat 04:27:57 PM 45.2967 -122.5850 36° Northeast 269 310 4,900 -1,792 Descending Seattle Center
Sat 04:28:13 PM 45.3069 -122.5394 72° East 264 304 4,300 -885 Descending Seattle Center
Sat 04:28:58 PM 45.3408 -122.4836 49° Northeast 256 295 4,000 -295 Descending Seattle Center
Sat 04:29:14 PM 45.3533 -122.4683 41° Northeast 228 262 4,000  Level Seattle Center
Sat 04:29:59 PM 45.3864 -122.4192 46° Northeast 236 272 4,000 -100 Level Seattle Center
Sat 04:30:14 PM 45.3967 -122.4044 45° Northeast 225 259 3,900 -1,100 Descending Seattle Center
Sat 04:30:59 PM 45.4394 -122.3731 27° Northeast 226 260 2,900 -771 Descending Seattle Center
Sat 04:32:03 PM 45.5028 -122.3822 354° North 191 220 2,500 -252 Descending Seattle Center
Sat 04:32:58 PM 45.5297 -122.4297 309° West 159 183 2,400 -574 Descending Seattle Center
Sat 04:33:58 PM 45.5525 -122.4883 299° West 168 193 1,400 -893 Descending Seattle Center
Sat 04:34:59 PM 45.5708 -122.5364 299° West 133 153 600 -787 Descending Seattle Center

Login

Don't have an account? Register now (free) for customized features, flight alerts, and more!